Карточка аэропорта USHH

Внимание!
Информация на этой странице в стадии наполнения.
Если вы не увидели какой-то информации, или заметили неточность - пожалуйста сообщите нам!
Спасибо!
Команда RU-STAFF
Название аэропортаХанты-Мансийск
Название аэропорта (англ.)Khanty-Mansiysk
Превышение141 ft. (43 m.)
Координаты61°1.7039999999999', 69°5.1599999999999'
Высота перехода800m
Эшелон переходаFL050
Коды ответчика5150-5177
Зона ОрВДТюмень РПИ (USTV)
Данные METARUSHH 041100Z 12002MPS CAVOK M15/M17 Q1025 R06/850245 NOSIG
Проноз погоды (TAF)USHH 040743Z 0409/0509 16003MPS 9999 BKN020 TEMPO 0409/0415 5000 -SN FEW003 BKN016 TEMPO 0415/0506 VRB01MPS 5000 BR SCT002 BKN016
NOTAMshow/hide NOTAM
AWOS   TABLE

Информация о ВПП

ВПП Длина ВПП (м.) Покрытие Курс ВПП Частота ILS
242800Асфальтобетон238110.1
062800Асфальтобетон58111.9

Диспетчерские позиции

Позывной Наименование органа УВД Частота
USHH_TWRХантым-Вышка118.1
USHH_R_APPХантым-Круг120.4



Спутниковое изображение